sensor_id;sensor_type;location;lat;lon;timestamp;P1;durP1;ratioP1;P2;durP2;ratioP2
13455;SDS011;6800;50.940;6.940;2023-02-28T00:04:01;4.80;;;4.30;;
13455;SDS011;6800;50.940;6.940;2023-02-28T00:08:02;5.10;;;4.33;;
13455;SDS011;6800;50.940;6.940;2023-02-28T00:12:04;4.73;;;4.33;;
13455;SDS011;6800;50.940;6.940;2023-02-28T00:16:11;7.00;;;4.80;;
13455;SDS011;6800;50.940;6.940;2023-02-28T00:20:16;5.57;;;5.10;;
13455;SDS011;6800;50.940;6.940;2023-02-28T00:24:18;5.20;;;4.80;;
13455;SDS011;6800;50.940;6.940;2023-02-28T00:28:19;5.13;;;4.73;;
13455;SDS011;6800;50.940;6.940;2023-02-28T00:32:21;4.57;;;4.17;;
13455;SDS011;6800;50.940;6.940;2023-02-28T00:36:23;5.77;;;5.23;;
13455;SDS011;6800;50.940;6.940;2023-02-28T00:40:24;6.27;;;4.40;;
13455;SDS011;6800;50.940;6.940;2023-02-28T00:44:26;4.80;;;4.50;;
13455;SDS011;6800;50.940;6.940;2023-02-28T00:48:27;4.67;;;4.27;;
13455;SDS011;6800;50.940;6.940;2023-02-28T00:52:29;4.50;;;4.20;;
13455;SDS011;6800;50.940;6.940;2023-02-28T00:56:30;4.53;;;4.17;;
13455;SDS011;6800;50.940;6.940;2023-02-28T01:00:32;4.77;;;4.37;;
13455;SDS011;6800;50.940;6.940;2023-02-28T01:04:33;7.17;;;4.80;;
13455;SDS011;6800;50.940;6.940;2023-02-28T01:08:35;6.47;;;4.73;;
13455;SDS011;6800;50.940;6.940;2023-02-28T01:12:36;4.80;;;4.40;;
13455;SDS011;6800;50.940;6.940;2023-02-28T01:16:37;5.30;;;4.73;;
13455;SDS011;6800;50.940;6.940;2023-02-28T01:20:39;5.60;;;5.10;;
13455;SDS011;6800;50.940;6.940;2023-02-28T01:24:40;5.37;;;4.97;;
13455;SDS011;6800;50.940;6.940;2023-02-28T01:28:41;5.13;;;4.70;;
13455;SDS011;6800;50.940;6.940;2023-02-28T01:32:43;5.80;;;4.80;;
13455;SDS011;6800;50.940;6.940;2023-02-28T01:36:45;4.80;;;4.30;;
13455;SDS011;6800;50.940;6.940;2023-02-28T01:40:46;7.37;;;4.37;;
13455;SDS011;6800;50.940;6.940;2023-02-28T01:53:17;5.00;;;4.67;;
13455;SDS011;6800;50.940;6.940;2023-02-28T01:57:21;5.03;;;4.63;;
13455;SDS011;6800;50.940;6.940;2023-02-28T02:01:26;5.07;;;4.67;;
13455;SDS011;6800;50.940;6.940;2023-02-28T02:05:29;4.70;;;4.40;;
13455;SDS011;6800;50.940;6.940;2023-02-28T02:09:35;5.23;;;4.83;;
13455;SDS011;6800;50.940;6.940;2023-02-28T02:18:09;4.90;;;4.40;;
13455;SDS011;6800;50.940;6.940;2023-02-28T02:22:53;4.67;;;4.37;;
13455;SDS011;6800;50.940;6.940;2023-02-28T02:26:55;4.40;;;4.03;;
13455;SDS011;6800;50.940;6.940;2023-02-28T02:36:02;5.03;;;4.63;;
13455;SDS011;6800;50.940;6.940;2023-02-28T02:40:09;5.50;;;5.00;;
13455;SDS011;6800;50.940;6.940;2023-02-28T02:44:30;4.83;;;4.53;;
13455;SDS011;6800;50.940;6.940;2023-02-28T02:48:38;4.57;;;4.27;;
13455;SDS011;6800;50.940;6.940;2023-02-28T02:52:45;4.37;;;4.07;;
13455;SDS011;6800;50.940;6.940;2023-02-28T02:56:52;5.20;;;4.80;;
13455;SDS011;6800;50.940;6.940;2023-02-28T03:00:54;4.93;;;4.40;;
13455;SDS011;6800;50.940;6.940;2023-02-28T03:05:01;6.17;;;4.50;;
13455;SDS011;6800;50.940;6.940;2023-02-28T03:09:07;4.50;;;4.20;;
13455;SDS011;6800;50.940;6.940;2023-02-28T03:26:18;4.20;;;4.00;;
13455;SDS011;6800;50.940;6.940;2023-02-28T03:34:46;5.03;;;4.50;;
13455;SDS011;6800;50.940;6.940;2023-02-28T03:38:58;4.90;;;4.60;;
13455;SDS011;6800;50.940;6.940;2023-02-28T03:43:08;5.17;;;4.77;;
13455;SDS011;6800;50.940;6.940;2023-02-28T03:47:17;5.37;;;4.97;;
13455;SDS011;6800;50.940;6.940;2023-02-28T03:51:30;4.30;;;4.00;;
13455;SDS011;6800;50.940;6.940;2023-02-28T03:55:35;4.83;;;4.43;;
13455;SDS011;6800;50.940;6.940;2023-02-28T03:59:45;5.00;;;4.60;;
13455;SDS011;6800;50.940;6.940;2023-02-28T04:03:50;5.00;;;4.70;;
13455;SDS011;6800;50.940;6.940;2023-02-28T04:07:52;4.60;;;4.30;;
13455;SDS011;6800;50.940;6.940;2023-02-28T04:11:55;4.87;;;4.57;;
13455;SDS011;6800;50.940;6.940;2023-02-28T04:15:59;5.43;;;4.93;;
13455;SDS011;6800;50.940;6.940;2023-02-28T04:20:00;5.03;;;4.73;;
13455;SDS011;6800;50.940;6.940;2023-02-28T04:24:02;5.87;;;5.37;;
13455;SDS011;6800;50.940;6.940;2023-02-28T04:28:04;5.63;;;5.07;;
13455;SDS011;6800;50.940;6.940;2023-02-28T04:32:05;5.87;;;5.40;;
13455;SDS011;6800;50.940;6.940;2023-02-28T04:36:07;5.60;;;5.20;;
13455;SDS011;6800;50.940;6.940;2023-02-28T04:40:10;6.80;;;6.30;;
13455;SDS011;6800;50.940;6.940;2023-02-28T04:44:12;6.20;;;5.70;;
13455;SDS011;6800;50.940;6.940;2023-02-28T04:48:13;6.17;;;5.50;;
13455;SDS011;6800;50.940;6.940;2023-02-28T04:52:15;5.93;;;5.47;;
13455;SDS011;6800;50.940;6.940;2023-02-28T04:56:16;5.67;;;5.17;;
13455;SDS011;6800;50.940;6.940;2023-02-28T05:00:18;7.07;;;5.67;;
13455;SDS011;6800;50.940;6.940;2023-02-28T05:04:20;5.17;;;4.77;;
13455;SDS011;6800;50.940;6.940;2023-02-28T05:08:22;5.03;;;4.60;;
13455;SDS011;6800;50.940;6.940;2023-02-28T05:12:23;4.93;;;4.53;;
13455;SDS011;6800;50.940;6.940;2023-02-28T05:16:24;5.17;;;4.67;;
13455;SDS011;6800;50.940;6.940;2023-02-28T05:20:26;5.63;;;5.20;;
13455;SDS011;6800;50.940;6.940;2023-02-28T05:24:27;6.17;;;5.53;;
13455;SDS011;6800;50.940;6.940;2023-02-28T05:28:28;5.67;;;5.30;;
13455;SDS011;6800;50.940;6.940;2023-02-28T05:32:30;5.33;;;4.93;;
13455;SDS011;6800;50.940;6.940;2023-02-28T05:36:31;5.43;;;4.97;;
13455;SDS011;6800;50.940;6.940;2023-02-28T05:40:33;5.60;;;5.10;;
13455;SDS011;6800;50.940;6.940;2023-02-28T05:44:34;5.63;;;5.13;;
13455;SDS011;6800;50.940;6.940;2023-02-28T05:48:37;5.20;;;4.80;;
13455;SDS011;6800;50.940;6.940;2023-02-28T05:52:40;5.03;;;4.63;;
13455;SDS011;6800;50.940;6.940;2023-02-28T05:56:41;6.80;;;5.43;;
13455;SDS011;6800;50.940;6.940;2023-02-28T06:00:45;4.77;;;4.47;;
13455;SDS011;6800;50.940;6.940;2023-02-28T06:04:46;5.70;;;5.30;;
13455;SDS011;6800;50.940;6.940;2023-02-28T06:08:48;5.87;;;5.43;;
13455;SDS011;6800;50.940;6.940;2023-02-28T06:12:49;5.87;;;5.40;;
13455;SDS011;6800;50.940;6.940;2023-02-28T06:16:50;5.70;;;5.30;;
13455;SDS011;6800;50.940;6.940;2023-02-28T06:20:53;5.67;;;5.17;;
13455;SDS011;6800;50.940;6.940;2023-02-28T06:24:55;5.40;;;4.90;;
13455;SDS011;6800;50.940;6.940;2023-02-28T06:28:58;5.07;;;4.70;;
13455;SDS011;6800;50.940;6.940;2023-02-28T06:32:59;4.93;;;4.53;;
13455;SDS011;6800;50.940;6.940;2023-02-28T06:37:00;5.40;;;5.00;;
13455;SDS011;6800;50.940;6.940;2023-02-28T06:41:03;5.00;;;4.60;;
13455;SDS011;6800;50.940;6.940;2023-02-28T06:45:05;4.50;;;4.20;;
13455;SDS011;6800;50.940;6.940;2023-02-28T06:49:11;5.67;;;5.17;;
13455;SDS011;6800;50.940;6.940;2023-02-28T06:53:13;5.17;;;4.87;;
13455;SDS011;6800;50.940;6.940;2023-02-28T06:57:14;5.67;;;5.27;;
13455;SDS011;6800;50.940;6.940;2023-02-28T07:01:16;5.70;;;5.10;;
13455;SDS011;6800;50.940;6.940;2023-02-28T07:05:18;6.47;;;5.40;;
13455;SDS011;6800;50.940;6.940;2023-02-28T07:09:20;5.40;;;5.00;;
13455;SDS011;6800;50.940;6.940;2023-02-28T07:13:21;5.77;;;5.27;;
13455;SDS011;6800;50.940;6.940;2023-02-28T07:17:23;5.70;;;5.00;;
13455;SDS011;6800;50.940;6.940;2023-02-28T07:21:25;5.27;;;4.87;;
13455;SDS011;6800;50.940;6.940;2023-02-28T07:25:27;5.17;;;4.80;;
13455;SDS011;6800;50.940;6.940;2023-02-28T07:29:29;6.07;;;5.47;;
13455;SDS011;6800;50.940;6.940;2023-02-28T07:33:31;5.20;;;4.77;;
13455;SDS011;6800;50.940;6.940;2023-02-28T07:37:32;5.93;;;5.43;;
13455;SDS011;6800;50.940;6.940;2023-02-28T07:41:37;6.20;;;5.73;;
13455;SDS011;6800;50.940;6.940;2023-02-28T07:45:44;5.13;;;4.63;;
13455;SDS011;6800;50.940;6.940;2023-02-28T07:49:45;5.07;;;4.57;;
13455;SDS011;6800;50.940;6.940;2023-02-28T07:53:47;4.83;;;4.23;;
13455;SDS011;6800;50.940;6.940;2023-02-28T07:57:48;4.77;;;4.47;;
13455;SDS011;6800;50.940;6.940;2023-02-28T08:01:49;4.93;;;4.53;;
13455;SDS011;6800;50.940;6.940;2023-02-28T08:05:51;4.23;;;3.83;;
13455;SDS011;6800;50.940;6.940;2023-02-28T08:09:53;3.93;;;3.63;;
13455;SDS011;6800;50.940;6.940;2023-02-28T08:13:55;3.93;;;3.67;;
13455;SDS011;6800;50.940;6.940;2023-02-28T08:17:56;3.87;;;3.57;;
13455;SDS011;6800;50.940;6.940;2023-02-28T08:21:58;3.70;;;3.40;;
13455;SDS011;6800;50.940;6.940;2023-02-28T08:25:59;4.30;;;4.00;;
13455;SDS011;6800;50.940;6.940;2023-02-28T08:30:00;3.97;;;3.40;;
13455;SDS011;6800;50.940;6.940;2023-02-28T08:34:08;4.03;;;3.73;;
13455;SDS011;6800;50.940;6.940;2023-02-28T08:38:11;3.20;;;3.00;;
13455;SDS011;6800;50.940;6.940;2023-02-28T08:42:13;3.50;;;3.23;;
13455;SDS011;6800;50.940;6.940;2023-02-28T08:46:14;3.30;;;3.07;;
13455;SDS011;6800;50.940;6.940;2023-02-28T08:50:16;3.03;;;2.83;;
13455;SDS011;6800;50.940;6.940;2023-02-28T08:54:17;3.67;;;3.33;;
13455;SDS011;6800;50.940;6.940;2023-02-28T08:58:20;2.93;;;2.73;;
13455;SDS011;6800;50.940;6.940;2023-02-28T09:02:21;3.00;;;2.80;;
13455;SDS011;6800;50.940;6.940;2023-02-28T09:06:23;2.90;;;2.70;;
13455;SDS011;6800;50.940;6.940;2023-02-28T09:10:26;2.60;;;2.40;;
13455;SDS011;6800;50.940;6.940;2023-02-28T09:14:28;2.47;;;2.27;;
13455;SDS011;6800;50.940;6.940;2023-02-28T09:18:29;2.43;;;2.10;;
13455;SDS011;6800;50.940;6.940;2023-02-28T09:22:30;2.40;;;2.20;;
13455;SDS011;6800;50.940;6.940;2023-02-28T09:26:32;2.90;;;2.60;;
13455;SDS011;6800;50.940;6.940;2023-02-28T09:30:48;3.97;;;2.20;;
13455;SDS011;6800;50.940;6.940;2023-02-28T09:34:51;6.03;;;2.33;;
13455;SDS011;6800;50.940;6.940;2023-02-28T09:38:52;5.57;;;2.30;;
13455;SDS011;6800;50.940;6.940;2023-02-28T09:42:55;5.67;;;2.70;;
13455;SDS011;6800;50.940;6.940;2023-02-28T09:47:25;2.77;;;1.97;;
13455;SDS011;6800;50.940;6.940;2023-02-28T09:51:39;2.23;;;2.03;;
13455;SDS011;6800;50.940;6.940;2023-02-28T09:55:50;3.00;;;2.03;;
13455;SDS011;6800;50.940;6.940;2023-02-28T09:59:59;2.20;;;1.93;;
13455;SDS011;6800;50.940;6.940;2023-02-28T10:08:37;2.30;;;2.10;;
13455;SDS011;6800;50.940;6.940;2023-02-28T10:12:46;2.93;;;2.57;;
13455;SDS011;6800;50.940;6.940;2023-02-28T10:21:16;2.10;;;1.97;;
13455;SDS011;6800;50.940;6.940;2023-02-28T10:25:28;4.23;;;2.50;;
13455;SDS011;6800;50.940;6.940;2023-02-28T10:29:31;2.50;;;2.10;;
13455;SDS011;6800;50.940;6.940;2023-02-28T10:33:34;2.43;;;2.23;;
13455;SDS011;6800;50.940;6.940;2023-02-28T10:37:40;2.30;;;2.20;;
13455;SDS011;6800;50.940;6.940;2023-02-28T10:41:43;3.03;;;2.40;;
13455;SDS011;6800;50.940;6.940;2023-02-28T10:45:55;2.63;;;2.40;;
13455;SDS011;6800;50.940;6.940;2023-02-28T10:49:59;2.60;;;2.40;;
13455;SDS011;6800;50.940;6.940;2023-02-28T10:54:01;3.67;;;2.50;;
13455;SDS011;6800;50.940;6.940;2023-02-28T10:58:03;2.80;;;2.60;;
13455;SDS011;6800;50.940;6.940;2023-02-28T11:02:31;3.00;;;2.77;;
13455;SDS011;6800;50.940;6.940;2023-02-28T11:06:37;5.73;;;2.90;;
13455;SDS011;6800;50.940;6.940;2023-02-28T11:10:38;3.23;;;2.70;;
13455;SDS011;6800;50.940;6.940;2023-02-28T11:14:46;2.60;;;2.40;;
13455;SDS011;6800;50.940;6.940;2023-02-28T11:18:54;2.57;;;2.27;;
13455;SDS011;6800;50.940;6.940;2023-02-28T11:22:57;2.60;;;2.20;;
13455;SDS011;6800;50.940;6.940;2023-02-28T11:27:02;2.83;;;2.40;;
13455;SDS011;6800;50.940;6.940;2023-02-28T11:35:18;2.83;;;2.37;;
13455;SDS011;6800;50.940;6.940;2023-02-28T11:39:26;3.97;;;2.97;;
13455;SDS011;6800;50.940;6.940;2023-02-28T11:47:49;3.77;;;2.77;;
13455;SDS011;6800;50.940;6.940;2023-02-28T11:52:15;2.60;;;2.40;;
13455;SDS011;6800;50.940;6.940;2023-02-28T11:56:49;2.83;;;2.63;;
13455;SDS011;6800;50.940;6.940;2023-02-28T12:05:31;4.23;;;2.80;;
13455;SDS011;6800;50.940;6.940;2023-02-28T12:10:01;5.03;;;2.83;;
13455;SDS011;6800;50.940;6.940;2023-02-28T12:23:29;3.53;;;3.00;;
13455;SDS011;6800;50.940;6.940;2023-02-28T12:27:48;3.30;;;3.00;;
13455;SDS011;6800;50.940;6.940;2023-02-28T12:32:09;3.70;;;3.40;;
13455;SDS011;6800;50.940;6.940;2023-02-28T12:36:17;5.20;;;4.50;;
13455;SDS011;6800;50.940;6.940;2023-02-28T12:40:23;6.00;;;5.57;;
13455;SDS011;6800;50.940;6.940;2023-02-28T12:44:35;5.43;;;5.03;;
13455;SDS011;6800;50.940;6.940;2023-02-28T12:48:49;5.47;;;5.00;;
13455;SDS011;6800;50.940;6.940;2023-02-28T12:53:02;5.87;;;5.37;;
13455;SDS011;6800;50.940;6.940;2023-02-28T13:10:09;5.27;;;4.87;;
13455;SDS011;6800;50.940;6.940;2023-02-28T13:18:38;5.07;;;4.67;;
13455;SDS011;6800;50.940;6.940;2023-02-28T13:22:41;5.40;;;5.00;;
13455;SDS011;6800;50.940;6.940;2023-02-28T13:38:56;7.57;;;5.87;;
13455;SDS011;6800;50.940;6.940;2023-02-28T13:43:03;5.67;;;5.20;;
13455;SDS011;6800;50.940;6.940;2023-02-28T13:47:21;5.73;;;5.13;;
13455;SDS011;6800;50.940;6.940;2023-02-28T14:08:50;5.33;;;4.83;;
13455;SDS011;6800;50.940;6.940;2023-02-28T14:17:35;6.20;;;5.70;;
13455;SDS011;6800;50.940;6.940;2023-02-28T14:21:39;5.23;;;4.83;;
13455;SDS011;6800;50.940;6.940;2023-02-28T14:30:26;4.50;;;4.20;;
13455;SDS011;6800;50.940;6.940;2023-02-28T14:34:52;6.30;;;5.90;;
13455;SDS011;6800;50.940;6.940;2023-02-28T14:39:04;5.60;;;5.10;;
13455;SDS011;6800;50.940;6.940;2023-02-28T14:43:19;6.00;;;5.50;;
13455;SDS011;6800;50.940;6.940;2023-02-28T14:47:23;5.13;;;4.77;;
13455;SDS011;6800;50.940;6.940;2023-02-28T14:51:29;5.83;;;5.33;;
13455;SDS011;6800;50.940;6.940;2023-02-28T14:55:35;5.70;;;5.20;;
13455;SDS011;6800;50.940;6.940;2023-02-28T14:59:36;5.87;;;5.30;;
13455;SDS011;6800;50.940;6.940;2023-02-28T15:03:39;5.90;;;5.30;;
13455;SDS011;6800;50.940;6.940;2023-02-28T15:07:40;5.90;;;5.40;;
13455;SDS011;6800;50.940;6.940;2023-02-28T15:11:42;5.60;;;5.10;;
13455;SDS011;6800;50.940;6.940;2023-02-28T15:15:55;6.00;;;5.10;;
13455;SDS011;6800;50.940;6.940;2023-02-28T15:20:04;5.50;;;5.10;;
13455;SDS011;6800;50.940;6.940;2023-02-28T15:28:15;5.20;;;4.70;;
13455;SDS011;6800;50.940;6.940;2023-02-28T15:36:32;5.50;;;5.10;;
13455;SDS011;6800;50.940;6.940;2023-02-28T15:40:40;6.07;;;5.40;;
13455;SDS011;6800;50.940;6.940;2023-02-28T15:44:43;5.93;;;5.53;;
13455;SDS011;6800;50.940;6.940;2023-02-28T15:48:52;5.53;;;5.10;;
13455;SDS011;6800;50.940;6.940;2023-02-28T15:52:55;5.30;;;4.90;;
13455;SDS011;6800;50.940;6.940;2023-02-28T15:57:03;5.57;;;5.17;;
13455;SDS011;6800;50.940;6.940;2023-02-28T16:01:17;6.00;;;5.50;;
13455;SDS011;6800;50.940;6.940;2023-02-28T16:09:29;6.10;;;5.63;;
13455;SDS011;6800;50.940;6.940;2023-02-28T16:13:35;5.73;;;5.10;;
13455;SDS011;6800;50.940;6.940;2023-02-28T16:17:37;5.23;;;4.73;;
13455;SDS011;6800;50.940;6.940;2023-02-28T16:21:40;5.13;;;4.73;;
13455;SDS011;6800;50.940;6.940;2023-02-28T16:25:42;5.60;;;5.20;;
13455;SDS011;6800;50.940;6.940;2023-02-28T16:29:45;5.30;;;4.90;;
13455;SDS011;6800;50.940;6.940;2023-02-28T16:33:48;4.70;;;4.33;;
13455;SDS011;6800;50.940;6.940;2023-02-28T16:37:50;5.37;;;5.00;;
13455;SDS011;6800;50.940;6.940;2023-02-28T16:41:52;5.63;;;5.23;;
13455;SDS011;6800;50.940;6.940;2023-02-28T16:45:55;5.63;;;5.13;;
13455;SDS011;6800;50.940;6.940;2023-02-28T16:50:01;5.67;;;5.13;;
13455;SDS011;6800;50.940;6.940;2023-02-28T16:54:02;5.60;;;5.13;;
13455;SDS011;6800;50.940;6.940;2023-02-28T16:58:04;5.93;;;5.37;;
13455;SDS011;6800;50.940;6.940;2023-02-28T17:02:13;5.90;;;5.30;;
13455;SDS011;6800;50.940;6.940;2023-02-28T17:06:20;6.80;;;6.20;;
13455;SDS011;6800;50.940;6.940;2023-02-28T17:10:25;5.90;;;5.40;;
13455;SDS011;6800;50.940;6.940;2023-02-28T17:14:27;6.40;;;5.90;;
13455;SDS011;6800;50.940;6.940;2023-02-28T17:18:29;6.53;;;5.90;;
13455;SDS011;6800;50.940;6.940;2023-02-28T17:22:34;6.37;;;5.87;;
13455;SDS011;6800;50.940;6.940;2023-02-28T17:26:36;7.53;;;6.00;;
13455;SDS011;6800;50.940;6.940;2023-02-28T17:30:37;7.00;;;6.20;;
13455;SDS011;6800;50.940;6.940;2023-02-28T17:34:38;7.60;;;6.90;;
13455;SDS011;6800;50.940;6.940;2023-02-28T17:38:40;9.40;;;6.97;;
13455;SDS011;6800;50.940;6.940;2023-02-28T17:42:42;7.23;;;6.63;;
13455;SDS011;6800;50.940;6.940;2023-02-28T17:46:44;8.27;;;7.47;;
13455;SDS011;6800;50.940;6.940;2023-02-28T17:50:46;7.17;;;5.43;;
13455;SDS011;6800;50.940;6.940;2023-02-28T17:54:48;6.50;;;5.70;;
13455;SDS011;6800;50.940;6.940;2023-02-28T17:58:50;5.87;;;5.27;;
13455;SDS011;6800;50.940;6.940;2023-02-28T18:02:53;5.10;;;4.60;;
13455;SDS011;6800;50.940;6.940;2023-02-28T18:06:55;9.30;;;8.57;;
13455;SDS011;6800;50.940;6.940;2023-02-28T18:11:01;5.63;;;5.07;;
13455;SDS011;6800;50.940;6.940;2023-02-28T18:15:02;9.83;;;6.20;;
13455;SDS011;6800;50.940;6.940;2023-02-28T18:19:04;7.07;;;5.60;;
13455;SDS011;6800;50.940;6.940;2023-02-28T18:23:07;6.30;;;5.63;;
13455;SDS011;6800;50.940;6.940;2023-02-28T18:27:08;6.73;;;6.07;;
13455;SDS011;6800;50.940;6.940;2023-02-28T18:31:12;6.13;;;5.53;;
13455;SDS011;6800;50.940;6.940;2023-02-28T18:35:16;8.90;;;6.63;;
13455;SDS011;6800;50.940;6.940;2023-02-28T18:39:34;7.33;;;6.63;;
13455;SDS011;6800;50.940;6.940;2023-02-28T18:43:36;7.20;;;6.10;;
13455;SDS011;6800;50.940;6.940;2023-02-28T18:47:40;14.40;;;10.03;;
13455;SDS011;6800;50.940;6.940;2023-02-28T18:51:41;14.33;;;11.10;;
13455;SDS011;6800;50.940;6.940;2023-02-28T18:55:45;8.83;;;7.77;;
13455;SDS011;6800;50.940;6.940;2023-02-28T18:59:46;7.80;;;6.67;;
13455;SDS011;6800;50.940;6.940;2023-02-28T19:03:48;7.57;;;6.50;;
13455;SDS011;6800;50.940;6.940;2023-02-28T19:07:50;7.73;;;6.67;;
13455;SDS011;6800;50.940;6.940;2023-02-28T19:11:52;7.87;;;7.17;;
13455;SDS011;6800;50.940;6.940;2023-02-28T19:15:59;8.40;;;7.53;;
13455;SDS011;6800;50.940;6.940;2023-02-28T19:20:03;8.13;;;7.37;;
13455;SDS011;6800;50.940;6.940;2023-02-28T19:24:05;10.13;;;7.60;;
13455;SDS011;6800;50.940;6.940;2023-02-28T19:28:06;9.53;;;8.17;;
13455;SDS011;6800;50.940;6.940;2023-02-28T19:32:08;10.27;;;8.40;;
13455;SDS011;6800;50.940;6.940;2023-02-28T19:36:10;11.10;;;8.67;;
13455;SDS011;6800;50.940;6.940;2023-02-28T19:40:12;9.73;;;7.77;;
13455;SDS011;6800;50.940;6.940;2023-02-28T19:44:14;7.43;;;6.73;;
13455;SDS011;6800;50.940;6.940;2023-02-28T19:48:15;7.67;;;6.97;;
13455;SDS011;6800;50.940;6.940;2023-02-28T19:52:16;8.00;;;7.23;;
13455;SDS011;6800;50.940;6.940;2023-02-28T19:56:18;8.73;;;6.53;;
13455;SDS011;6800;50.940;6.940;2023-02-28T20:00:21;8.10;;;7.30;;
13455;SDS011;6800;50.940;6.940;2023-02-28T20:04:22;7.87;;;7.07;;
13455;SDS011;6800;50.940;6.940;2023-02-28T20:08:25;8.60;;;7.80;;
13455;SDS011;6800;50.940;6.940;2023-02-28T20:12:28;8.93;;;8.00;;
13455;SDS011;6800;50.940;6.940;2023-02-28T20:16:30;11.80;;;8.63;;
13455;SDS011;6800;50.940;6.940;2023-02-28T20:20:32;10.13;;;8.27;;
13455;SDS011;6800;50.940;6.940;2023-02-28T20:24:37;10.63;;;9.53;;
13455;SDS011;6800;50.940;6.940;2023-02-28T20:28:39;10.13;;;9.13;;
13455;SDS011;6800;50.940;6.940;2023-02-28T20:32:43;9.17;;;8.27;;
13455;SDS011;6800;50.940;6.940;2023-02-28T20:36:44;9.07;;;8.17;;
13455;SDS011;6800;50.940;6.940;2023-02-28T20:40:46;9.50;;;8.60;;
13455;SDS011;6800;50.940;6.940;2023-02-28T20:44:47;9.50;;;8.60;;
13455;SDS011;6800;50.940;6.940;2023-02-28T20:48:50;8.87;;;7.97;;
13455;SDS011;6800;50.940;6.940;2023-02-28T20:52:52;9.07;;;8.17;;
13455;SDS011;6800;50.940;6.940;2023-02-28T20:56:53;11.07;;;8.73;;
13455;SDS011;6800;50.940;6.940;2023-02-28T21:00:58;9.50;;;7.97;;
13455;SDS011;6800;50.940;6.940;2023-02-28T21:05:01;9.60;;;8.70;;
13455;SDS011;6800;50.940;6.940;2023-02-28T21:09:06;8.97;;;8.17;;
13455;SDS011;6800;50.940;6.940;2023-02-28T21:13:09;9.37;;;8.47;;
13455;SDS011;6800;50.940;6.940;2023-02-28T21:17:10;9.20;;;8.13;;
13455;SDS011;6800;50.940;6.940;2023-02-28T21:21:12;10.33;;;9.23;;
13455;SDS011;6800;50.940;6.940;2023-02-28T21:25:15;9.70;;;8.80;;
13455;SDS011;6800;50.940;6.940;2023-02-28T21:29:17;12.07;;;8.83;;
13455;SDS011;6800;50.940;6.940;2023-02-28T21:33:18;10.27;;;8.60;;
13455;SDS011;6800;50.940;6.940;2023-02-28T21:37:20;10.90;;;9.70;;
13455;SDS011;6800;50.940;6.940;2023-02-28T21:41:21;10.53;;;9.47;;
13455;SDS011;6800;50.940;6.940;2023-02-28T21:45:26;10.50;;;9.50;;
13455;SDS011;6800;50.940;6.940;2023-02-28T21:49:29;10.17;;;9.17;;
13455;SDS011;6800;50.940;6.940;2023-02-28T21:53:31;9.73;;;8.73;;
13455;SDS011;6800;50.940;6.940;2023-02-28T21:57:33;9.70;;;8.80;;
13455;SDS011;6800;50.940;6.940;2023-02-28T22:01:36;9.87;;;8.30;;
13455;SDS011;6800;50.940;6.940;2023-02-28T22:05:40;10.10;;;8.93;;
13455;SDS011;6800;50.940;6.940;2023-02-28T22:09:41;10.33;;;9.30;;
13455;SDS011;6800;50.940;6.940;2023-02-28T22:13:43;10.87;;;9.60;;
13455;SDS011;6800;50.940;6.940;2023-02-28T22:17:50;9.50;;;8.47;;
13455;SDS011;6800;50.940;6.940;2023-02-28T22:21:52;10.40;;;8.90;;
13455;SDS011;6800;50.940;6.940;2023-02-28T22:25:54;9.43;;;8.43;;
13455;SDS011;6800;50.940;6.940;2023-02-28T22:29:55;9.13;;;8.23;;
13455;SDS011;6800;50.940;6.940;2023-02-28T22:33:59;9.70;;;8.80;;
13455;SDS011;6800;50.940;6.940;2023-02-28T22:38:06;8.77;;;7.90;;
13455;SDS011;6800;50.940;6.940;2023-02-28T22:42:08;9.53;;;8.57;;
13455;SDS011;6800;50.940;6.940;2023-02-28T22:46:10;8.67;;;7.77;;
13455;SDS011;6800;50.940;6.940;2023-02-28T22:50:13;9.83;;;8.30;;
13455;SDS011;6800;50.940;6.940;2023-02-28T22:54:15;9.67;;;8.67;;
13455;SDS011;6800;50.940;6.940;2023-02-28T22:58:16;9.43;;;8.50;;
13455;SDS011;6800;50.940;6.940;2023-02-28T23:02:18;9.23;;;8.43;;
13455;SDS011;6800;50.940;6.940;2023-02-28T23:06:21;9.47;;;8.03;;
13455;SDS011;6800;50.940;6.940;2023-02-28T23:10:28;9.50;;;8.60;;
13455;SDS011;6800;50.940;6.940;2023-02-28T23:14:30;9.23;;;8.33;;
13455;SDS011;6800;50.940;6.940;2023-02-28T23:18:31;10.37;;;8.50;;
13455;SDS011;6800;50.940;6.940;2023-02-28T23:22:33;11.33;;;9.63;;
13455;SDS011;6800;50.940;6.940;2023-02-28T23:26:35;9.73;;;8.70;;
13455;SDS011;6800;50.940;6.940;2023-02-28T23:30:38;9.77;;;8.77;;
13455;SDS011;6800;50.940;6.940;2023-02-28T23:39:00;9.77;;;8.77;;
13455;SDS011;6800;50.940;6.940;2023-02-28T23:43:02;10.13;;;9.13;;
13455;SDS011;6800;50.940;6.940;2023-02-28T23:47:03;10.47;;;8.63;;
13455;SDS011;6800;50.940;6.940;2023-02-28T23:51:05;11.23;;;8.90;;
13455;SDS011;6800;50.940;6.940;2023-02-28T23:55:09;9.30;;;8.40;;
13455;SDS011;6800;50.940;6.940;2023-02-28T23:59:11;9.40;;;8.50;;
